Time;durP1;ratioP1;P1;durP2;ratioP2;P2;SDS_P1;SDS_P2;PMS_P1;PMS_P2;Temp;Humidity;BMP_temperature;BMP_pressure;BME280_temperature;BME280_humidity;BME280_pressure;Samples;Min_cycle;Max_cycle;Signal;HPM_P1;HPM_P2
2022/01/25 00:24:20;;;;;;;48.25;36.00;;;6.50;80.20;;;;;;4991217;28;20144;-68
2022/01/25 00:26:48;;;;;;;50.67;35.90;;;6.50;80.10;;;;;;5002036;28;20478;-68
2022/01/25 00:29:27;;;;;;;49.83;36.03;;;6.40;80.00;;;;;;5019055;28;20061;-68
2022/01/25 00:31:53;;;;;;;50.10;36.60;;;6.40;79.90;;;;;;4994599;28;20034;-68
2022/01/25 00:34:19;;;;;;;53.72;37.25;;;6.40;79.90;;;;;;5010379;28;20112;-68
2022/01/25 00:36:44;;;;;;;52.75;36.35;;;6.40;79.70;;;;;;5009958;28;20109;-68
2022/01/25 00:39:10;;;;;;;50.10;37.28;;;6.40;79.60;;;;;;5010427;28;20045;-68
2022/01/25 00:41:36;;;;;;;49.78;36.25;;;6.40;79.50;;;;;;5010270;28;20064;-68
2022/01/25 00:44:02;;;;;;;48.35;36.40;;;6.40;79.50;;;;;;5010476;28;20041;-68
2022/01/25 00:46:28;;;;;;;50.80;36.72;;;6.40;79.50;;;;;;5009155;28;20034;-68
2022/01/25 00:48:59;;;;;;;49.42;36.13;;;6.40;79.30;;;;;;5010270;28;20500;-68
2022/01/25 00:56:29;;;;;;;49.92;36.10;;;6.40;79.20;;;;;;5010738;28;20054;-68
2022/01/25 00:58:55;;;;;;;48.50;36.60;;;6.40;79.30;;;;;;5010470;28;20037;-68
2022/01/25 01:01:21;;;;;;;52.60;36.45;;;6.40;79.30;;;;;;5012128;28;20113;-68
2022/01/25 01:03:47;;;;;;;49.58;36.55;;;6.40;79.40;;;;;;5004106;28;20045;-68
2022/01/25 01:06:14;;;;;;;46.35;35.72;;;6.40;79.30;;;;;;5010004;28;20030;-68
2022/01/25 01:08:40;;;;;;;46.92;35.53;;;6.40;79.10;;;;;;5009635;28;20034;-68
2022/01/25 01:11:10;;;;;;;51.58;36.17;;;6.40;79.10;;;;;;5009884;28;20562;-68
2022/01/25 01:16:36;;;;;;;47.58;35.03;;;6.40;79.30;;;;;;5010180;28;20164;-68
2022/01/25 01:30:15;;;;;;;50.03;36.90;;;6.30;79.20;;;;;;5009640;28;20041;-68
2022/01/25 01:43:13;;;;;;;50.40;37.13;;;6.30;78.90;;;;;;5009080;28;20053;-68
2022/01/25 01:50:57;;;;;;;52.35;36.92;;;6.30;79.00;;;;;;5009764;28;20033;-68
2022/01/25 01:53:23;;;;;;;54.00;38.25;;;6.30;78.90;;;;;;5008849;28;20477;-68
2022/01/25 01:55:49;;;;;;;48.03;35.72;;;6.30;78.70;;;;;;5003373;28;20026;-68
2022/01/25 01:58:15;;;;;;;51.50;36.53;;;6.30;78.50;;;;;;5009292;28;20029;-68
2022/01/25 02:00:44;;;;;;;49.20;36.40;;;6.30;78.50;;;;;;5009084;28;20512;-68
2022/01/25 02:03:10;;;;;;;48.45;35.90;;;6.30;78.40;;;;;;5008569;28;20477;-68
2022/01/25 02:05:36;;;;;;;48.75;37.03;;;6.30;78.30;;;;;;4991413;28;20046;-68
2022/01/25 02:08:02;;;;;;;51.92;37.03;;;6.30;78.30;;;;;;5008689;28;20041;-68
2022/01/25 02:10:28;;;;;;;51.83;37.92;;;6.30;78.50;;;;;;5009132;28;20026;-68
2022/01/25 02:12:54;;;;;;;53.03;36.83;;;6.30;78.60;;;;;;4992653;28;20389;-68
2022/01/25 02:15:22;;;;;;;54.83;39.33;;;6.30;78.60;;;;;;5013170;28;20030;-68
2022/01/25 02:22:23;;;;;;;51.30;37.03;;;6.30;78.60;;;;;;5012557;28;20049;-68
2022/01/25 02:23:26;;;;;;;55.67;39.78;;;6.30;78.60;;;;;;5012964;28;20343;-67
2022/01/25 02:25:54;;;;;;;52.78;37.63;;;6.30;78.50;;;;;;4994838;28;20447;-68
2022/01/25 02:28:22;;;;;;;52.03;37.50;;;6.20;78.40;;;;;;4995528;28;20047;-68
2022/01/25 02:30:48;;;;;;;51.55;37.53;;;6.20;78.50;;;;;;4993665;28;20027;-68
2022/01/25 02:33:14;;;;;;;54.47;37.88;;;6.20;78.60;;;;;;4992410;28;20444;-68
2022/01/25 02:35:40;;;;;;;53.35;39.10;;;6.20;78.40;;;;;;4986529;28;20030;-68
2022/01/25 02:38:07;;;;;;;57.83;40.33;;;6.20;78.50;;;;;;4993158;28;20030;-68
2022/01/25 02:40:33;;;;;;;59.78;40.97;;;6.20;78.40;;;;;;4993670;28;20038;-67
2022/01/25 02:42:59;;;;;;;57.28;40.25;;;6.20;78.50;;;;;;4975046;28;20042;-67
2022/01/25 02:45:32;;;;;;;59.90;40.90;;;6.20;78.50;;;;;;5013065;28;20105;-67
2022/01/25 02:50:42;;;;;;;59.65;40.90;;;6.20;78.60;;;;;;4996135;28;20217;-68
2022/01/25 02:53:07;;;;;;;58.58;38.92;;;6.20;78.50;;;;;;4990090;28;20026;-68
2022/01/25 02:55:33;;;;;;;60.63;40.67;;;6.20;78.40;;;;;;4940369;28;20478;-68
2022/01/25 02:57:59;;;;;;;61.03;41.25;;;6.20;78.40;;;;;;4992420;28;20041;-67
2022/01/25 03:00:24;;;;;;;61.33;41.70;;;6.20;78.50;;;;;;4970322;28;20030;-67
2022/01/25 03:02:50;;;;;;;61.20;41.45;;;6.20;78.50;;;;;;4972145;28;20113;-68
2022/01/25 03:05:16;;;;;;;62.33;39.97;;;6.20;78.20;;;;;;4993266;28;20041;-66
2022/01/25 03:07:43;;;;;;;61.92;40.80;;;6.20;78.10;;;;;;4992630;28;20042;-67
2022/01/25 03:10:10;;;;;;;60.95;40.55;;;6.20;78.00;;;;;;4992221;28;20034;-67
2022/01/25 03:12:48;;;;;;;60.85;40.70;;;6.20;77.80;;;;;;4992068;28;20029;-67
2022/01/25 03:17:51;;;;;;;60.22;40.67;;;6.20;78.20;;;;;;4992162;28;20030;-67
2022/01/25 03:20:36;;;;;;;61.60;40.13;;;6.20;78.30;;;;;;4992192;28;20030;-67
2022/01/25 03:23:15;;;;;;;62.63;41.88;;;6.20;78.30;;;;;;4981671;28;20129;-67
2022/01/25 03:25:41;;;;;;;61.25;41.17;;;6.20;78.10;;;;;;4991690;28;20034;-67
2022/01/25 03:28:07;;;;;;;66.00;42.08;;;6.10;77.90;;;;;;4991719;28;20046;-67
2022/01/25 03:30:32;;;;;;;70.90;44.90;;;6.20;77.90;;;;;;4992108;28;20501;-67
2022/01/25 03:32:58;;;;;;;66.32;43.08;;;6.20;78.40;;;;;;4991040;28;20035;-67
2022/01/25 03:35:23;;;;;;;64.22;42.00;;;6.20;77.80;;;;;;4991898;28;20034;-67
2022/01/25 03:37:49;;;;;;;62.33;40.88;;;6.20;77.90;;;;;;4992595;28;20044;-67
2022/01/25 03:40:15;;;;;;;62.40;41.78;;;6.20;78.00;;;;;;4974771;28;20034;-67
2022/01/25 03:42:40;;;;;;;62.88;41.17;;;6.20;78.10;;;;;;4991948;28;20813;-67
2022/01/25 03:45:09;;;;;;;62.45;41.75;;;6.20;77.90;;;;;;4991901;28;20474;-67
2022/01/25 03:47:57;;;;;;;62.47;41.95;;;6.20;78.00;;;;;;4982891;28;20038;-67
2022/01/25 03:50:24;;;;;;;66.60;41.88;;;6.10;78.00;;;;;;4970871;28;20030;-67
2022/01/25 03:52:49;;;;;;;62.75;41.05;;;6.10;78.00;;;;;;4991414;28;20026;-67
2022/01/25 03:55:15;;;;;;;62.28;41.60;;;6.20;78.10;;;;;;4992883;28;20482;-67
2022/01/25 03:57:41;;;;;;;62.10;40.90;;;6.20;78.00;;;;;;4991727;28;20045;-67
2022/01/25 04:00:08;;;;;;;63.15;42.28;;;6.10;77.90;;;;;;4974668;28;20035;-67
2022/01/25 04:02:36;;;;;;;63.20;41.33;;;6.20;77.90;;;;;;4991045;28;20022;-67
2022/01/25 04:05:02;;;;;;;64.45;42.05;;;6.10;77.70;;;;;;4990018;28;20038;-67
2022/01/25 04:07:42;;;;;;;63.95;40.88;;;6.10;77.80;;;;;;4990000;28;20097;-68
2022/01/25 04:10:09;;;;;;;64.97;40.38;;;6.10;78.10;;;;;;4991290;28;20375;-67
2022/01/25 04:12:34;;;;;;;60.95;40.30;;;6.10;78.10;;;;;;4991274;28;20085;-67
2022/01/25 04:15:02;;;;;;;63.70;41.10;;;6.10;78.10;;;;;;4991942;28;20433;-67
2022/01/25 04:17:27;;;;;;;63.40;40.60;;;6.10;78.10;;;;;;4990886;28;20030;-67
2022/01/25 04:25:21;;;;;;;67.93;41.47;;;6.10;78.00;;;;;;4990460;28;20520;-67
2022/01/25 04:27:47;;;;;;;61.72;39.95;;;6.10;78.20;;;;;;5003975;28;20046;-67
2022/01/25 04:30:13;;;;;;;64.63;40.65;;;6.10;78.30;;;;;;4993298;28;20109;-67
2022/01/25 04:32:46;;;;;;;62.70;40.25;;;6.10;78.20;;;;;;5010074;28;20119;-66
2022/01/25 04:49:18;;;;;;;59.33;38.97;;;6.00;78.40;;;;;;5010552;28;20396;-67
2022/01/25 05:02:01;;;;;;;68.78;42.78;;;6.00;78.70;;;;;;5021661;28;20044;-67
2022/01/25 05:04:32;;;;;;;62.30;40.25;;;6.00;78.30;;;;;;5010426;28;20049;-67
2022/01/25 05:07:07;;;;;;;65.22;42.35;;;6.00;78.40;;;;;;5009514;28;20753;-68
2022/01/25 05:09:34;;;;;;;68.47;42.80;;;6.00;78.70;;;;;;5007983;28;20038;-67
2022/01/25 05:12:02;;;;;;;66.65;42.10;;;6.00;78.90;;;;;;5008615;28;20022;-67
2022/01/25 05:14:34;;;;;;;64.53;41.33;;;5.90;78.80;;;;;;5004626;28;20038;-68
2022/01/25 05:17:03;;;;;;;68.13;43.35;;;5.90;78.60;;;;;;5011429;28;20492;-68
2022/01/25 05:24:42;;;;;;;60.30;39.42;;;6.00;79.00;;;;;;5005952;28;20397;-68
2022/01/25 05:27:10;;;;;;;64.30;41.47;;;6.00;79.00;;;;;;5016161;28;20046;-68
2022/01/25 05:29:36;;;;;;;69.57;43.72;;;6.00;79.00;;;;;;5010312;28;20025;-68
2022/01/25 05:32:03;;;;;;;67.18;41.63;;;6.00;79.00;;;;;;5008095;28;20042;-67
2022/01/25 05:34:28;;;;;;;65.00;41.85;;;6.00;79.00;;;;;;5010706;28;20030;-67
2022/01/25 05:36:54;;;;;;;64.93;40.92;;;6.00;79.10;;;;;;5007692;28;20495;-67
2022/01/25 05:39:28;;;;;;;67.75;42.25;;;5.90;79.00;;;;;;5006176;28;20036;-67
2022/01/25 05:41:57;;;;;;;62.78;40.80;;;5.90;79.00;;;;;;5008074;28;20543;-67
2022/01/25 05:44:40;;;;;;;67.15;42.83;;;5.90;78.90;;;;;;5009006;28;20528;-68
2022/01/25 05:47:07;;;;;;;67.13;41.63;;;5.90;78.90;;;;;;5020408;28;20056;-67
2022/01/25 05:49:35;;;;;;;65.32;42.05;;;5.90;78.90;;;;;;5012766;28;20389;-67
2022/01/25 05:52:06;;;;;;;68.20;42.85;;;5.90;79.00;;;;;;5007857;28;20474;-68
2022/01/25 05:54:32;;;;;;;67.43;41.50;;;5.90;79.00;;;;;;5008681;28;20703;-67
2022/01/25 05:56:58;;;;;;;65.85;41.80;;;5.90;79.00;;;;;;5005354;28;20156;-67
2022/01/25 05:59:23;;;;;;;69.82;44.40;;;5.90;79.10;;;;;;5016174;28;20036;-67
2022/01/25 06:01:49;;;;;;;64.85;42.63;;;6.00;79.30;;;;;;5010402;28;20037;-68
2022/01/25 06:04:15;;;;;;;59.55;39.20;;;6.00;79.30;;;;;;5012512;28;20544;-68
2022/01/25 06:06:41;;;;;;;65.03;40.92;;;5.90;79.30;;;;;;5015743;28;20785;-68
2022/01/25 06:09:07;;;;;;;64.72;41.65;;;6.00;79.40;;;;;;5008421;28;20041;-68
2022/01/25 06:11:33;;;;;;;64.03;39.80;;;5.90;79.50;;;;;;5004049;28;20092;-68
2022/01/25 06:14:00;;;;;;;69.75;42.47;;;5.90;79.50;;;;;;5019849;28;20026;-68
2022/01/25 06:16:28;;;;;;;66.50;41.08;;;5.90;79.50;;;;;;5013014;28;20041;-68
2022/01/25 06:18:54;;;;;;;68.47;43.70;;;5.90;79.50;;;;;;5017854;28;20402;-68
2022/01/25 06:21:20;;;;;;;67.28;42.78;;;5.90;79.40;;;;;;5007945;28;20552;-68
2022/01/25 06:23:46;;;;;;;67.85;43.13;;;5.90;79.50;;;;;;5002701;28;20120;-68
2022/01/25 06:26:12;;;;;;;69.07;42.78;;;5.90;79.50;;;;;;5005982;28;20061;-67
2022/01/25 06:28:37;;;;;;;68.65;42.58;;;5.90;79.40;;;;;;4977746;28;20057;-67
2022/01/25 06:31:03;;;;;;;66.75;42.28;;;5.90;79.30;;;;;;5007584;28;20026;-67
2022/01/25 06:33:29;;;;;;;68.93;42.85;;;5.90;79.10;;;;;;4990785;28;20040;-68
2022/01/25 06:35:56;;;;;;;75.82;46.67;;;5.90;79.00;;;;;;5009491;28;20428;-68
2022/01/25 06:38:22;;;;;;;74.07;46.72;;;5.80;78.70;;;;;;5008940;28;20042;-68
2022/01/25 06:40:47;;;;;;;71.35;43.40;;;5.90;78.30;;;;;;5008752;28;20046;-68
2022/01/25 06:43:13;;;;;;;72.40;45.95;;;5.90;78.30;;;;;;5008710;28;20034;-68
2022/01/25 06:45:41;;;;;;;70.65;43.75;;;5.90;78.50;;;;;;5008960;28;20042;-68
2022/01/25 06:48:07;;;;;;;70.65;43.58;;;5.90;78.40;;;;;;5008910;28;20022;-67
2022/01/25 06:50:33;;;;;;;73.10;45.28;;;5.80;78.40;;;;;;4991693;28;20030;-68
2022/01/25 06:52:59;;;;;;;76.72;46.88;;;5.90;78.50;;;;;;5008142;28;20032;-67
2022/01/25 06:55:25;;;;;;;73.50;45.15;;;5.90;78.50;;;;;;5006499;28;20048;-68
2022/01/25 06:57:51;;;;;;;76.78;46.88;;;5.80;78.60;;;;;;5007457;28;20090;-67
2022/01/25 07:00:20;;;;;;;72.70;45.35;;;5.80;78.50;;;;;;5011978;28;20036;-67
2022/01/25 07:02:46;;;;;;;71.72;43.65;;;5.80;78.30;;;;;;5008514;28;20080;-67
2022/01/25 07:05:12;;;;;;;72.85;45.47;;;5.80;78.00;;;;;;4992936;28;20034;-68
2022/01/25 07:07:39;;;;;;;69.85;44.03;;;5.80;78.10;;;;;;5011023;28;20086;-67
2022/01/25 07:10:06;;;;;;;71.18;43.83;;;5.80;78.30;;;;;;5012323;28;20034;-67
2022/01/25 07:12:33;;;;;;;71.25;45.15;;;5.90;78.40;;;;;;4993953;28;20038;-68
2022/01/25 07:14:58;;;;;;;73.45;45.08;;;5.90;78.40;;;;;;4994127;28;20034;-67
2022/01/25 07:17:24;;;;;;;72.20;44.90;;;5.80;78.10;;;;;;5012740;28;20137;-68
2022/01/25 07:19:50;;;;;;;70.20;44.03;;;5.90;77.90;;;;;;5011191;28;20030;-68
2022/01/25 07:22:16;;;;;;;75.82;45.97;;;5.90;78.00;;;;;;5011130;28;20092;-69
2022/01/25 07:24:42;;;;;;;75.28;47.30;;;5.80;78.00;;;;;;4994691;28;20044;-69
2022/01/25 07:27:08;;;;;;;72.63;45.15;;;5.90;78.10;;;;;;5011925;28;20046;-69
2022/01/25 07:29:33;;;;;;;72.78;44.13;;;5.90;78.00;;;;;;5012245;28;20033;-70
2022/01/25 07:31:59;;;;;;;73.63;45.42;;;5.90;77.80;;;;;;5006109;28;20121;-69
2022/01/25 07:34:26;;;;;;;76.15;45.75;;;5.80;77.70;;;;;;5003773;28;20424;-70
2022/01/25 07:36:51;;;;;;;70.93;44.42;;;5.90;78.00;;;;;;5010576;28;20527;-70
2022/01/25 07:39:17;;;;;;;73.90;45.78;;;5.80;77.10;;;;;;5005979;28;20026;-69
2022/01/25 07:41:44;;;;;;;72.30;44.30;;;5.80;77.20;;;;;;5009883;28;20037;-70
2022/01/25 07:44:10;;;;;;;74.10;44.75;;;5.80;77.20;;;;;;4992088;28;20072;-70
2022/01/25 07:46:36;;;;;;;70.55;42.90;;;5.80;77.40;;;;;;5011121;28;20054;-70
2022/01/25 07:49:03;;;;;;;76.22;44.97;;;5.80;77.40;;;;;;4993195;28;20037;-70
2022/01/25 07:51:30;;;;;;;74.20;44.30;;;5.80;77.30;;;;;;5010836;28;20033;-70
2022/01/25 07:53:56;;;;;;;70.40;44.00;;;5.80;77.20;;;;;;5011313;28;20507;-70
2022/01/25 07:56:22;;;;;;;76.47;45.75;;;5.80;77.20;;;;;;5011940;28;20021;-67
2022/01/25 07:58:48;;;;;;;73.65;45.17;;;5.80;77.20;;;;;;4992957;28;20034;-66
2022/01/25 08:01:18;;;;;;;71.32;44.45;;;5.80;76.80;;;;;;5008184;28;20041;-67
2022/01/25 08:03:44;;;;;;;72.43;44.63;;;5.80;76.90;;;;;;5010031;28;20412;-65
2022/01/25 08:06:10;;;;;;;69.97;43.50;;;5.80;77.10;;;;;;5010984;28;20116;-68
2022/01/25 08:08:37;;;;;;;72.72;44.72;;;5.90;77.30;;;;;;5011236;28;20049;-67
2022/01/25 08:11:03;;;;;;;66.25;41.47;;;5.80;77.30;;;;;;5004268;28;20108;-64
2022/01/25 08:13:30;;;;;;;73.63;45.03;;;5.90;77.30;;;;;;5009535;28;20444;-66
2022/01/25 08:15:56;;;;;;;73.65;45.13;;;5.90;77.30;;;;;;5009181;28;20504;-66
2022/01/25 08:18:21;;;;;;;74.45;45.65;;;5.90;77.20;;;;;;4978266;28;20029;-65
2022/01/25 08:20:48;;;;;;;74.15;46.15;;;5.90;77.20;;;;;;5005650;28;20037;-64
2022/01/25 08:23:14;;;;;;;74.30;45.58;;;5.90;77.10;;;;;;5010409;28;20053;-63
2022/01/25 08:25:40;;;;;;;72.43;45.20;;;5.90;77.00;;;;;;5006407;28;20576;-66
2022/01/25 08:28:05;;;;;;;72.55;43.60;;;5.90;77.00;;;;;;5007850;28;20386;-67
2022/01/25 08:30:31;;;;;;;73.07;44.60;;;5.90;77.00;;;;;;5010386;28;20058;-67
2022/01/25 08:32:57;;;;;;;71.85;44.40;;;5.90;77.00;;;;;;5009067;28;20432;-67
2022/01/25 08:35:24;;;;;;;70.65;43.42;;;5.90;76.90;;;;;;5011153;28;20030;-67
2022/01/25 08:37:50;;;;;;;71.13;43.58;;;5.90;76.90;;;;;;5010477;28;20025;-64
2022/01/25 08:40:16;;;;;;;72.18;43.97;;;5.90;76.80;;;;;;5008318;28;20033;-67
2022/01/25 08:42:42;;;;;;;69.78;42.67;;;5.90;76.70;;;;;;5009647;28;20049;-66
2022/01/25 08:45:09;;;;;;;70.95;43.17;;;5.90;76.70;;;;;;5009324;28;20030;-64
2022/01/25 08:47:36;;;;;;;69.47;42.33;;;5.90;76.50;;;;;;5005408;28;20152;-59
2022/01/25 08:50:03;;;;;;;69.40;42.28;;;5.90;76.50;;;;;;5008073;28;20034;-60
2022/01/25 08:52:28;;;;;;;70.68;43.38;;;5.90;76.40;;;;;;5016557;28;20025;-61
2022/01/25 08:54:54;;;;;;;69.00;42.45;;;5.90;76.20;;;;;;5012111;28;20033;-62
2022/01/25 08:57:20;;;;;;;73.30;43.35;;;5.90;76.20;;;;;;4995545;28;20041;-61
2022/01/25 08:59:45;;;;;;;72.18;44.05;;;5.90;76.20;;;;;;5009369;28;20362;-61
2022/01/25 09:02:11;;;;;;;72.18;44.72;;;5.90;76.30;;;;;;5008143;28;20133;-61
2022/01/25 09:04:37;;;;;;;70.68;43.08;;;5.90;76.20;;;;;;5010973;28;20030;-61
2022/01/25 09:07:03;;;;;;;71.40;43.42;;;5.80;76.30;;;;;;5010538;28;20068;-61
2022/01/25 09:09:28;;;;;;;73.50;45.10;;;5.90;77.10;;;;;;5005543;28;20428;-61
2022/01/25 09:11:56;;;;;;;71.15;43.58;;;5.90;76.40;;;;;;5011231;28;20022;-62
2022/01/25 09:14:22;;;;;;;72.20;44.10;;;5.90;76.40;;;;;;5013164;28;20128;-61
2022/01/25 09:16:48;;;;;;;71.72;42.33;;;5.90;76.30;;;;;;5009154;28;20440;-62
2022/01/25 09:19:15;;;;;;;72.20;43.28;;;5.90;76.30;;;;;;5012086;28;20513;-61
2022/01/25 09:21:40;;;;;;;73.57;44.28;;;5.90;76.30;;;;;;5007786;28;20044;-61
2022/01/25 09:24:07;;;;;;;68.78;41.75;;;5.90;76.20;;;;;;5001703;28;20400;-61
2022/01/25 09:26:32;;;;;;;72.43;42.47;;;5.90;76.20;;;;;;5007050;28;20076;-62
2022/01/25 09:28:58;;;;;;;69.93;43.83;;;5.90;76.30;;;;;;5009314;28;20029;-61
2022/01/25 09:31:25;;;;;;;75.38;44.75;;;5.90;76.20;;;;;;4982668;28;20030;-61
2022/01/25 09:33:51;;;;;;;74.55;44.53;;;5.90;76.00;;;;;;5008188;28;20108;-61
2022/01/25 09:36:17;;;;;;;75.22;44.55;;;5.90;75.80;;;;;;5009476;28;20030;-59
2022/01/25 09:38:44;;;;;;;71.18;44.10;;;5.90;75.60;;;;;;5009517;28;20044;-59
2022/01/25 09:41:10;;;;;;;70.72;43.05;;;5.90;75.70;;;;;;5008960;28;20022;-59
2022/01/25 09:43:36;;;;;;;75.57;45.17;;;5.90;75.70;;;;;;5017168;28;20033;-59
2022/01/25 09:46:02;;;;;;;72.82;43.42;;;5.90;75.80;;;;;;5017637;28;20041;-59
2022/01/25 09:48:28;;;;;;;70.05;42.25;;;5.90;75.80;;;;;;4992063;28;20033;-59
2022/01/25 09:50:57;;;;;;;71.93;42.35;;;5.90;75.60;;;;;;5009740;28;20397;-59
2022/01/25 09:53:24;;;;;;;69.10;41.72;;;5.90;75.20;;;;;;5009836;28;20137;-58
2022/01/25 09:55:50;;;;;;;71.28;42.42;;;5.90;75.40;;;;;;5012613;28;20113;-59
2022/01/25 09:58:15;;;;;;;71.80;42.47;;;5.90;75.60;;;;;;5005591;28;20140;-59
2022/01/25 10:00:46;;;;;;;72.38;43.33;;;5.90;75.80;;;;;;5006218;28;20125;-59
2022/01/25 10:03:24;;;;;;;69.38;41.13;;;5.90;75.70;;;;;;5003142;28;20034;-59
2022/01/25 10:05:53;;;;;;;71.20;41.97;;;5.90;75.90;;;;;;5006940;28;20431;-59
2022/01/25 10:08:33;;;;;;;68.57;40.40;;;5.90;75.90;;;;;;5003528;28;20141;-59
2022/01/25 10:11:15;;;;;;;72.25;43.08;;;5.90;75.80;;;;;;5005276;28;20030;-59
2022/01/25 10:13:43;;;;;;;74.60;43.83;;;5.90;76.00;;;;;;5003497;28;20533;-59
2022/01/25 10:16:12;;;;;;;77.07;44.30;;;6.00;76.00;;;;;;5006011;28;20037;-59
2022/01/25 10:18:46;;;;;;;69.80;40.97;;;6.00;75.90;;;;;;5006709;28;20550;-59
2022/01/25 10:21:19;;;;;;;73.68;43.45;;;6.00;76.00;;;;;;5006458;28;20030;-59
2022/01/25 10:24:09;;;;;;;73.63;43.58;;;6.00;75.90;;;;;;5001223;28;20030;-59
2022/01/25 10:26:42;;;;;;;72.40;43.40;;;6.00;75.80;;;;;;5010173;28;20061;-59
2022/01/25 10:29:10;;;;;;;73.35;43.42;;;5.90;76.00;;;;;;4985923;28;20034;-59
2022/01/25 10:31:39;;;;;;;74.20;43.92;;;6.00;76.10;;;;;;5007648;28;20069;-59
2022/01/25 10:34:07;;;;;;;71.30;43.30;;;6.00;76.00;;;;;;5010582;28;20029;-59
2022/01/25 10:36:34;;;;;;;71.47;43.05;;;6.00;75.70;;;;;;5011278;28;20026;-59
2022/01/25 10:39:00;;;;;;;64.70;39.40;;;6.00;75.80;;;;;;4994736;28;20030;-59
2022/01/25 10:41:28;;;;;;;74.03;44.85;;;6.00;75.90;;;;;;5001038;28;20396;-59
2022/01/25 10:43:56;;;;;;;74.72;45.83;;;6.00;76.00;;;;;;5009328;28;20057;-58
2022/01/25 10:46:32;;;;;;;71.82;42.60;;;6.00;76.10;;;;;;4991402;28;20040;-59
2022/01/25 10:49:00;;;;;;;70.53;41.97;;;6.00;76.20;;;;;;4994077;28;20041;-59
2022/01/25 10:51:27;;;;;;;70.93;42.95;;;6.00;76.00;;;;;;5007945;28;20768;-59
2022/01/25 10:54:03;;;;;;;71.72;42.65;;;6.00;76.00;;;;;;5012392;28;20457;-59
2022/01/25 10:56:50;;;;;;;67.80;41.78;;;6.00;76.00;;;;;;5010851;28;20089;-61
2022/01/25 10:59:22;;;;;;;69.05;41.47;;;6.00;75.80;;;;;;4969963;28;20030;-61
2022/01/25 11:01:55;;;;;;;68.15;38.83;;;6.00;75.70;;;;;;5009472;28;20084;-62
2022/01/25 11:04:26;;;;;;;67.28;40.22;;;6.00;75.70;;;;;;5012264;28;20018;-61
2022/01/25 11:06:58;;;;;;;76.95;44.58;;;6.00;75.70;;;;;;5011115;28;20092;-61
2022/01/25 11:09:25;;;;;;;67.97;41.05;;;6.00;75.40;;;;;;5012030;28;20030;-61
2022/01/25 11:11:55;;;;;;;68.63;41.67;;;6.00;75.40;;;;;;5010840;28;20034;-61
2022/01/25 11:17:06;;;;;;;68.55;40.55;;;6.00;75.40;;;;;;5019474;28;20492;-61
2022/01/25 11:19:32;;;;;;;64.13;38.80;;;6.00;75.30;;;;;;5011471;28;20147;-61
2022/01/25 11:21:59;;;;;;;68.47;40.95;;;6.00;75.30;;;;;;5011260;28;20520;-61
2022/01/25 11:24:31;;;;;;;68.28;40.88;;;6.00;75.10;;;;;;5009794;28;20054;-61
2022/01/25 11:26:59;;;;;;;;;;;6.10;75.30;;;;;;5009699;28;20045;-61
2022/01/25 11:29:25;;;;;;;69.22;38.78;;;6.10;75.20;;;;;;4997253;28;20316;-62
2022/01/25 11:31:57;;;;;;;63.50;37.45;;;6.00;75.10;;;;;;4993196;28;20528;-61
2022/01/25 11:34:26;;;;;;;69.30;40.60;;;6.10;75.30;;;;;;4995299;28;20022;-62
2022/01/25 11:37:04;;;;;;;73.00;43.33;;;6.10;75.20;;;;;;4991669;28;20062;-61
2022/01/25 11:39:31;;;;;;;67.68;41.10;;;6.10;75.10;;;;;;4974447;28;20393;-61
2022/01/25 11:42:09;;;;;;;67.95;39.85;;;6.10;75.10;;;;;;4985614;28;20278;-61
2022/01/25 11:44:45;;;;;;;71.25;42.15;;;6.10;75.30;;;;;;4972336;28;20484;-61
2022/01/25 11:47:16;;;;;;;65.35;39.50;;;6.10;75.10;;;;;;4969004;28;20035;-61
2022/01/25 11:49:56;;;;;;;68.13;38.80;;;6.00;74.90;;;;;;4972368;28;20038;-61
2022/01/25 11:52:24;;;;;;;66.38;39.78;;;6.00;75.10;;;;;;4987061;28;20076;-61
2022/01/25 11:55:14;;;;;;;63.75;37.83;;;6.00;75.00;;;;;;4989561;28;20603;-61
2022/01/25 11:57:57;;;;;;;66.50;39.70;;;6.00;74.90;;;;;;4986503;28;20516;-61
2022/01/25 12:00:46;;;;;;;69.80;39.75;;;5.90;75.00;;;;;;4994663;28;20038;-61
2022/01/25 12:03:47;;;;;;;65.75;38.97;;;6.00;75.30;;;;;;4984758;28;20064;-59
2022/01/25 12:06:27;;;;;;;62.20;38.20;;;5.90;75.30;;;;;;4987311;28;20050;-59
2022/01/25 12:12:09;;;;;;;68.70;40.58;;;6.00;74.50;;;;;;4990637;28;20038;-59
2022/01/25 12:14:40;;;;;;;66.65;39.65;;;6.00;74.00;;;;;;4990050;28;20080;-59
2022/01/25 12:17:06;;;;;;;62.40;37.58;;;6.00;74.20;;;;;;4996896;28;20105;-61
2022/01/25 12:19:47;;;;;;;66.40;38.55;;;6.00;74.20;;;;;;4994909;28;20410;-58
2022/01/25 12:22:26;;;;;;;65.60;39.03;;;6.00;73.90;;;;;;4992861;28;20030;-59
2022/01/25 12:25:14;;;;;;;68.40;39.47;;;6.00;74.00;;;;;;4992044;28;20034;-59
2022/01/25 12:27:50;;;;;;;64.60;39.53;;;6.00;74.20;;;;;;4990524;28;20557;-61
2022/01/25 12:30:34;;;;;;;70.93;41.30;;;6.00;74.20;;;;;;5010160;28;20030;-61
2022/01/25 12:33:05;;;;;;;71.47;41.85;;;6.00;74.20;;;;;;4994114;28;20525;-59
2022/01/25 12:35:36;;;;;;;71.63;42.17;;;6.00;73.80;;;;;;5006966;28;20292;-59
2022/01/25 12:38:13;;;;;;;68.88;40.33;;;6.00;73.70;;;;;;5004059;28;20095;-59
2022/01/25 12:41:05;;;;;;;66.00;38.95;;;6.00;73.90;;;;;;5010177;28;20022;-59
2022/01/25 12:43:41;;;;;;;63.85;39.88;;;6.00;74.30;;;;;;5010178;28;20496;-59
2022/01/25 12:46:11;;;;;;;72.53;41.17;;;6.00;74.10;;;;;;5006684;28;20030;-59
2022/01/25 12:48:48;;;;;;;67.03;40.70;;;6.00;74.10;;;;;;4991364;28;20037;-59
2022/01/25 12:51:23;;;;;;;63.13;38.47;;;6.10;74.20;;;;;;5002201;28;20028;-59
2022/01/25 12:53:53;;;;;;;66.65;40.58;;;6.10;74.40;;;;;;4993190;28;20465;-59
2022/01/25 12:56:21;;;;;;;65.50;38.25;;;6.10;74.50;;;;;;5009867;28;20054;-59
2022/01/25 12:58:52;;;;;;;66.63;39.13;;;6.10;74.80;;;;;;4992993;28;20038;-59
2022/01/25 13:01:20;;;;;;;61.53;38.10;;;6.10;74.70;;;;;;5008951;28;20022;-59
2022/01/25 13:03:52;;;;;;;59.33;36.20;;;6.10;74.80;;;;;;5009203;28;20037;-59
2022/01/25 13:06:19;;;;;;;;;;;6.10;74.80;;;;;;5000760;28;20030;-59
2022/01/25 13:16:58;;;;;;;69.93;41.00;;;6.00;74.20;;;;;;5008853;28;20477;-67
2022/01/25 13:19:27;;;;;;;64.80;39.58;;;6.00;74.10;;;;;;5008167;28;20069;-68
2022/01/25 13:22:05;;;;;;;61.50;37.50;;;6.10;74.40;;;;;;5008966;28;20018;-68
2022/01/25 13:24:35;;;;;;;59.60;36.28;;;6.00;74.30;;;;;;5012052;28;20057;-68
2022/01/25 13:27:12;;;;;;;61.42;38.20;;;6.10;74.50;;;;;;5015572;28;20030;-67
2022/01/25 13:32:40;;;;;;;61.85;37.55;;;6.10;74.60;;;;;;5022077;28;20044;-67
2022/01/25 13:35:19;;;;;;;59.13;35.75;;;6.10;74.60;;;;;;5024301;28;20049;-68
2022/01/25 13:38:07;;;;;;;64.68;38.40;;;6.10;74.60;;;;;;5024793;28;20033;-68
2022/01/25 13:41:16;;;;;;;68.18;38.65;;;6.10;74.50;;;;;;5024581;28;20065;-68
2022/01/25 13:46:09;;;;;;;64.38;38.67;;;6.10;74.10;;;;;;5025948;28;20496;-68
2022/01/25 13:48:36;;;;;;;63.10;37.50;;;6.10;74.30;;;;;;5024059;28;20040;-68
2022/01/25 13:51:05;;;;;;;66.40;39.03;;;6.10;73.90;;;;;;5013423;28;20030;-68
2022/01/25 13:53:31;;;;;;;60.17;37.00;;;6.00;73.90;;;;;;5007282;28;20525;-68
2022/01/25 13:56:00;;;;;;;65.13;38.10;;;6.00;73.80;;;;;;5007689;28;20057;-68
2022/01/25 13:58:27;;;;;;;64.18;38.67;;;6.00;74.00;;;;;;5008270;28;20037;-68
2022/01/25 14:00:58;;;;;;;59.58;36.50;;;6.00;73.90;;;;;;5005357;28;20033;-68
2022/01/25 14:03:32;;;;;;;64.80;36.67;;;6.00;74.00;;;;;;4996167;28;20033;-68
2022/01/25 14:05:58;;;;;;;65.60;38.80;;;6.00;74.00;;;;;;5008021;28;20451;-68
2022/01/25 14:08:41;;;;;;;66.53;39.35;;;6.00;73.50;;;;;;5001031;28;20026;-68
2022/01/25 14:11:28;;;;;;;65.30;39.22;;;5.90;73.20;;;;;;5007569;28;20034;-68
2022/01/25 14:24:34;;;;;;;65.95;37.67;;;5.80;73.00;;;;;;5008834;28;20420;-67
2022/01/25 14:27:18;;;;;;;67.03;38.85;;;5.80;73.20;;;;;;5008102;28;20073;-68
2022/01/25 14:29:43;;;;;;;64.53;38.55;;;5.70;73.10;;;;;;5006792;28;20048;-68
2022/01/25 14:32:09;;;;;;;67.15;40.03;;;5.70;73.20;;;;;;5009578;28;20025;-68
2022/01/25 14:34:35;;;;;;;66.13;37.53;;;5.70;73.40;;;;;;5015348;28;20038;-68
2022/01/25 14:37:00;;;;;;;68.68;38.95;;;5.80;73.60;;;;;;5002451;28;20519;-68
2022/01/25 14:39:27;;;;;;;61.00;37.05;;;5.80;73.90;;;;;;5005767;28;20117;-68
2022/01/25 14:41:53;;;;;;;61.40;36.70;;;5.80;74.00;;;;;;5007079;28;20029;-68
2022/01/25 14:44:23;;;;;;;67.10;37.97;;;5.90;74.20;;;;;;5007782;28;20025;-68
2022/01/25 14:46:52;;;;;;;68.30;40.05;;;5.90;74.30;;;;;;5007771;28;20104;-68
2022/01/25 14:49:21;;;;;;;72.53;40.85;;;5.90;74.30;;;;;;5007799;28;20570;-68
2022/01/25 14:52:09;;;;;;;66.38;38.97;;;5.90;74.40;;;;;;5003578;28;20045;-68
2022/01/25 14:54:41;;;;;;;64.90;38.50;;;5.90;74.30;;;;;;5008022;28;20129;-68
2022/01/25 14:57:10;;;;;;;;;;;5.90;74.30;;;;;;5008147;28;20026;-68
2022/01/25 14:59:39;;;;;;;66.65;37.38;;;6.00;74.40;;;;;;5006678;28;20339;-68